createdAt,value
2023-03-22T00:01:59.421Z,65.90
2023-03-22T00:06:59.427Z,52.20
2023-03-22T00:11:59.327Z,52.60
2023-03-22T00:16:59.295Z,57.40
2023-03-22T00:22:00.236Z,56.90
2023-03-22T00:26:59.964Z,55.10
2023-03-22T00:31:59.128Z,58.10
2023-03-22T00:36:59.072Z,56.20
2023-03-22T00:41:59.382Z,58.20
2023-03-22T00:46:59.216Z,58.10
2023-03-22T00:51:59.160Z,56.00
2023-03-22T00:53:35.401Z,56.00
2023-03-22T00:56:59.045Z,58.60
2023-03-22T01:01:58.981Z,55.80
2023-03-22T01:07:01.015Z,56.50
2023-03-22T01:12:00.915Z,55.50
2023-03-22T01:16:59.347Z,58.30
2023-03-22T01:21:59.400Z,58.80
2023-03-22T01:26:58.977Z,60.10
2023-03-22T01:31:58.940Z,61.30
2023-03-22T01:36:59.323Z,64.90
2023-03-22T01:42:01.235Z,66.80
2023-03-22T01:46:58.896Z,64.90
2023-03-22T01:52:03.020Z,65.80
2023-03-22T01:56:59.549Z,66.40
2023-03-22T02:01:59.387Z,69.50
2023-03-22T02:07:08.531Z,70.70
2023-03-22T02:12:12.335Z,72.90
2023-03-22T02:17:11.783Z,74.50
2023-03-22T02:22:20.905Z,71.80
2023-03-22T02:27:18.673Z,71.70
2023-03-22T02:32:18.718Z,77.10
2023-03-22T02:37:11.689Z,83.50
2023-03-22T02:42:15.665Z,74.40
2023-03-22T02:47:03.434Z,70.00
2023-03-22T02:52:02.809Z,69.30
2023-03-22T02:57:04.337Z,68.50
2023-03-22T03:02:02.684Z,65.50
2023-03-22T03:07:04.134Z,76.30
2023-03-22T03:11:59.070Z,73.40
2023-03-22T03:17:09.704Z,74.20
2023-03-22T03:22:12.100Z,79.20
2023-03-22T03:27:04.001Z,71.40
2023-03-22T03:32:05.740Z,71.90
2023-03-22T03:37:03.995Z,76.30
2023-03-22T03:42:01.682Z,72.30
2023-03-22T03:44:55.181Z,75.10
2023-03-22T03:46:58.955Z,75.10
2023-03-22T03:51:59.423Z,74.30
2023-03-22T03:57:01.655Z,79.80
2023-03-22T04:01:59.446Z,72.10
2023-03-22T04:07:01.347Z,68.10
2023-03-22T04:11:59.701Z,74.80
2023-03-22T04:16:58.805Z,76.10
2023-03-22T04:21:59.386Z,64.50
2023-03-22T04:26:58.745Z,71.60
2023-03-22T04:31:58.808Z,66.50
2023-03-22T04:37:01.619Z,75.60
2023-03-22T04:41:58.816Z,77.50
2023-03-22T04:46:58.789Z,65.70
2023-03-22T04:52:00.298Z,58.90
2023-03-22T04:57:00.016Z,62.70
2023-03-22T05:01:59.062Z,60.50
2023-03-22T05:06:59.091Z,71.10
2023-03-22T05:11:58.918Z,64.50
2023-03-22T05:16:58.847Z,59.00
2023-03-22T05:20:53.702Z,56.60
2023-03-22T05:22:01.052Z,56.60
2023-03-22T05:27:00.040Z,59.00
2023-03-22T05:31:59.247Z,62.90
2023-03-22T05:36:59.886Z,51.70
2023-03-22T05:41:58.687Z,50.70
2023-03-22T05:46:59.193Z,48.90
2023-03-22T05:51:58.723Z,52.80
2023-03-22T05:55:49.264Z,45.80
2023-03-22T05:56:58.665Z,45.80
2023-03-22T06:01:59.225Z,46.30
2023-03-22T06:06:58.760Z,48.10
2023-03-22T06:11:58.696Z,40.70
2023-03-22T06:16:58.987Z,42.10
2023-03-22T06:21:58.763Z,41.50
2023-03-22T06:26:58.819Z,42.70
2023-03-22T06:31:59.647Z,41.00
2023-03-22T06:36:58.764Z,39.60
2023-03-22T06:38:32.458Z,41.90
2023-03-22T06:41:58.750Z,41.90
2023-03-22T06:46:58.906Z,39.20
2023-03-22T06:51:58.705Z,32.60
2023-03-22T06:56:58.750Z,32.20
2023-03-22T07:01:59.207Z,34.30
2023-03-22T07:06:58.628Z,31.10
2023-03-22T07:11:58.727Z,27.80
2023-03-22T07:16:59.251Z,31.40
2023-03-22T07:21:58.598Z,25.50
2023-03-22T07:26:58.613Z,27.20
2023-03-22T07:31:59.309Z,23.60
2023-03-22T07:36:58.612Z,20.70
2023-03-22T07:41:58.773Z,22.70
2023-03-22T07:47:08.640Z,18.30
2023-03-22T07:51:58.733Z,19.30
2023-03-22T07:56:58.798Z,17.10
2023-03-22T08:01:59.147Z,16.10
2023-03-22T08:06:59.115Z,16.70
2023-03-22T08:11:58.582Z,16.50
2023-03-22T08:16:58.836Z,16.50
2023-03-22T08:21:58.688Z,15.30
2023-03-22T08:26:58.814Z,15.00
2023-03-22T08:32:01.347Z,13.70
2023-03-22T08:36:58.607Z,15.50
2023-03-22T08:41:59.258Z,16.60
2023-03-22T08:46:58.818Z,16.00
2023-03-22T08:51:58.684Z,16.30
2023-03-22T08:56:59.009Z,20.20
2023-03-22T09:01:59.027Z,19.30
2023-03-22T09:06:58.746Z,18.40
2023-03-22T09:11:58.719Z,18.20
2023-03-22T09:16:58.926Z,15.90
2023-03-22T09:21:58.553Z,16.60
2023-03-22T09:26:58.693Z,18.20
2023-03-22T09:31:58.809Z,18.80
2023-03-22T09:37:01.293Z,18.10
2023-03-22T09:42:01.985Z,16.80
2023-03-22T09:47:01.199Z,19.70
2023-03-22T09:51:58.803Z,18.90
2023-03-22T09:57:03.324Z,17.80
2023-03-22T10:02:01.846Z,20.30
2023-03-22T10:07:06.115Z,17.80
2023-03-22T10:10:16.852Z,17.80
2023-03-22T10:12:04.442Z,16.70
2023-03-22T10:17:04.802Z,18.80
2023-03-22T10:22:01.552Z,20.30
2023-03-22T10:26:58.741Z,16.30
2023-03-22T10:32:12.873Z,15.80
2023-03-22T10:37:03.102Z,15.30
2023-03-22T10:42:02.407Z,17.10
2023-03-22T10:47:06.259Z,16.00
2023-03-22T10:52:02.896Z,17.50
2023-03-22T10:56:58.573Z,16.30
2023-03-22T11:02:01.040Z,18.00
2023-03-22T11:06:58.693Z,18.30
2023-03-22T11:11:59.986Z,16.80
2023-03-22T11:17:00.452Z,16.50
2023-03-22T11:21:59.472Z,18.20
2023-03-22T11:27:04.623Z,16.60
2023-03-22T11:31:59.679Z,16.10
2023-03-22T11:36:59.937Z,18.40
2023-03-22T11:42:02.861Z,17.10
2023-03-22T11:47:01.101Z,16.50
2023-03-22T11:52:07.749Z,18.30
2023-03-22T11:57:03.231Z,15.70
2023-03-22T12:02:05.690Z,15.70
2023-03-22T12:07:02.774Z,16.00
2023-03-22T12:12:01.350Z,14.70
2023-03-22T12:17:04.551Z,13.90
2023-03-22T12:21:58.790Z,14.40
2023-03-22T12:27:04.151Z,15.20
2023-03-22T12:32:02.458Z,14.90
2023-03-22T12:37:02.461Z,14.30
2023-03-22T12:42:02.987Z,13.90
2023-03-22T12:47:05.425Z,14.10
2023-03-22T12:52:10.743Z,13.00
2023-03-22T12:56:58.504Z,13.50
2023-03-22T13:02:05.363Z,15.80
2023-03-22T13:07:09.189Z,13.40
2023-03-22T13:12:18.367Z,13.20
2023-03-22T13:16:59.663Z,13.10
2023-03-22T13:22:18.323Z,12.20
2023-03-22T13:26:58.447Z,10.60
2023-03-22T13:32:01.013Z,11.50
2023-03-22T13:37:08.684Z,12.70
2023-03-22T13:42:06.283Z,11.60
2023-03-22T13:47:00.960Z,12.00
2023-03-22T13:52:01.110Z,12.00
2023-03-22T13:57:00.447Z,12.30
2023-03-22T14:02:03.793Z,11.50
2023-03-22T14:07:06.065Z,13.20
2023-03-22T14:12:04.490Z,12.90
2023-03-22T14:17:03.964Z,15.00
2023-03-22T14:57:00.564Z,12.20
2023-03-22T15:02:05.361Z,14.00
2023-03-22T15:07:01.150Z,13.20
2023-03-22T15:12:01.026Z,14.20
2023-03-22T15:16:59.918Z,16.30
2023-03-22T15:22:03.101Z,13.10
2023-03-22T15:27:01.045Z,13.50
2023-03-22T15:32:01.653Z,13.70
2023-03-22T15:37:00.678Z,13.30
2023-03-22T15:42:11.132Z,11.90
2023-03-22T15:47:00.295Z,15.10
2023-03-22T15:52:08.624Z,14.10
2023-03-22T15:57:08.482Z,17.00
2023-03-22T16:02:00.293Z,18.40
2023-03-22T16:06:58.354Z,17.70
2023-03-22T16:11:58.717Z,12.40
2023-03-22T16:16:58.453Z,16.90
2023-03-22T16:21:58.367Z,16.30
2023-03-22T16:26:58.606Z,15.60
2023-03-22T16:31:58.251Z,16.00
2023-03-22T16:36:58.303Z,14.00
2023-03-22T16:41:58.612Z,18.60
2023-03-22T16:46:59.386Z,16.10
2023-03-22T16:51:58.238Z,14.60
2023-03-22T16:56:58.847Z,14.50
2023-03-22T17:01:58.300Z,15.40
2023-03-22T17:06:58.233Z,15.50
2023-03-22T17:11:58.804Z,17.00
2023-03-22T17:16:58.233Z,15.20
2023-03-22T17:21:58.838Z,18.40
2023-03-22T17:26:58.968Z,16.00
2023-03-22T17:32:04.182Z,16.30
2023-03-22T17:36:58.814Z,14.90
2023-03-22T17:41:58.723Z,15.70
2023-03-22T17:51:58.578Z,18.10
2023-03-22T17:57:32.931Z,15.80
2023-03-22T18:01:59.745Z,16.70
2023-03-22T18:06:58.188Z,18.70
2023-03-22T18:11:58.547Z,17.80
2023-03-22T18:16:58.323Z,19.60
2023-03-22T18:21:58.379Z,21.20
2023-03-22T18:32:06.047Z,19.70
2023-03-22T18:36:59.140Z,21.80
2023-03-22T18:42:08.640Z,20.50
2023-03-22T18:46:58.437Z,18.20
2023-03-22T18:52:36.081Z,19.50
2023-03-22T18:56:59.408Z,19.90
2023-03-22T19:02:09.965Z,21.30
2023-03-22T19:07:00.911Z,23.90
2023-03-22T19:11:58.543Z,24.30
2023-03-22T19:16:58.215Z,23.90
2023-03-22T19:21:58.226Z,27.20
2023-03-22T19:27:16.223Z,26.30
2023-03-22T19:31:58.864Z,25.60
2023-03-22T19:36:58.373Z,25.90
2023-03-22T19:42:06.534Z,29.70
2023-03-22T19:51:59.139Z,28.10
2023-03-22T19:56:58.740Z,29.10
2023-03-22T20:01:59.201Z,28.00
2023-03-22T20:06:58.628Z,26.00
2023-03-22T20:11:58.644Z,27.80
2023-03-22T20:17:05.547Z,29.60
2023-03-22T20:21:58.238Z,30.50
2023-03-22T20:26:58.309Z,30.70
2023-03-22T20:31:58.317Z,27.20
2023-03-22T20:36:58.251Z,32.30
2023-03-22T20:42:02.254Z,27.10
2023-03-22T20:46:36.310Z,31.30
2023-03-22T20:46:58.077Z,31.30
2023-03-22T20:51:58.292Z,31.30
2023-03-22T20:56:58.754Z,27.30
2023-03-22T21:01:58.276Z,29.80
2023-03-22T21:06:58.108Z,30.40
2023-03-22T21:11:58.370Z,29.90
2023-03-22T21:16:58.096Z,36.40
2023-03-22T21:22:04.925Z,29.10
2023-03-22T21:26:58.313Z,32.00
2023-03-22T21:31:58.070Z,31.60
2023-03-22T21:36:58.362Z,31.80
2023-03-22T21:37:08.740Z,31.80
2023-03-22T21:42:01.249Z,32.20
2023-03-22T21:46:58.920Z,33.00
2023-03-22T21:52:02.357Z,31.10
2023-03-22T21:56:58.970Z,32.30
2023-03-22T22:01:58.394Z,31.40
2023-03-22T22:07:00.450Z,32.40
2023-03-22T22:11:58.152Z,31.30
2023-03-22T22:16:58.416Z,32.20
2023-03-22T22:21:58.138Z,32.10
2023-03-22T22:26:58.068Z,33.10
2023-03-22T22:31:58.716Z,35.70
2023-03-22T22:36:58.009Z,36.10
2023-03-22T22:39:14.249Z,32.60
2023-03-22T22:41:59.280Z,32.60
2023-03-22T22:46:58.321Z,34.00
2023-03-22T22:51:58.104Z,34.50
2023-03-22T22:56:58.177Z,34.00
2023-03-22T23:01:58.446Z,33.20
2023-03-22T23:06:57.991Z,34.30
2023-03-22T23:11:58.206Z,35.10
2023-03-22T23:16:58.479Z,37.00
2023-03-22T23:22:02.248Z,36.00
2023-03-22T23:26:59.576Z,39.00
2023-03-22T23:32:00.674Z,36.80
2023-03-22T23:36:57.991Z,38.40
2023-03-22T23:41:58.100Z,39.60
2023-03-22T23:46:58.254Z,40.10
2023-03-22T23:51:58.158Z,37.20
2023-03-22T23:56:58.151Z,39.80
